Time;durP1;ratioP1;P1;durP2;ratioP2;P2;SDS_P1;SDS_P2;PMS_P1;PMS_P2;Temp;Humidity;BMP_temperature;BMP_pressure;BME280_temperature;BME280_humidity;BME280_pressure;Samples;Min_cycle;Max_cycle;Signal;HPM_P1;HPM_P2
2023/01/17 00:00:19;;;;;;;;;;;;;;;25.98;40.07;91696.03;4954254;28;7393;-66
2023/01/17 00:02:46;;;;;;;;;;;;;;;25.97;40.48;91705.59;4959272;28;8952;-67
2023/01/17 00:11:00;;;;;;;;;;;;;;;25.95;40.16;91689.66;4962920;28;9048;-66
2023/01/17 00:13:28;;;;;;;;;;;;;;;25.96;39.91;91690.38;4964920;28;9694;-66
2023/01/17 00:15:56;;;;;;;;;;;;;;;25.94;39.93;91692.97;5005349;28;9311;-66
2023/01/17 00:18:24;;;;;;;;;;;;;;;25.93;39.74;91691.53;5008294;28;7044;-66
2023/01/17 01:35:04;;;;;;;;;;;;;;;25.89;40.14;91694.72;4921128;29;7336;-66
2023/01/17 01:37:38;;;;;;;;;;;;;;;25.90;40.90;91696.16;4894451;29;7939;-66
2023/01/17 01:40:08;;;;;;;;;;;;;;;25.89;40.54;91689.22;4916930;29;7140;-67
2023/01/17 01:42:34;;;;;;;;;;;;;;;25.87;40.78;91685.56;4933763;29;7810;-66
2023/01/17 01:45:21;;;;;;;;;;;;;;;25.88;40.18;91676.72;4991545;28;7039;-66
2023/01/17 01:48:03;;;;;;;;;;;;;;;25.89;40.06;91691.97;5008604;28;7091;-67
2023/01/17 01:50:32;;;;;;;;;;;;;;;25.88;40.60;91687.75;5012087;28;9063;-66
2023/01/17 01:53:03;;;;;;;;;;;;;;;25.87;40.12;91689.06;5012941;28;7075;-67
2023/01/17 01:55:37;;;;;;;;;;;;;;;25.86;40.13;91690.34;5025183;28;7260;-66
2023/01/17 01:58:17;;;;;;;;;;;;;;;25.86;40.47;91679.34;5003216;28;8400;-67
2023/01/17 02:00:45;;;;;;;;;;;;;;;25.85;40.60;91679.91;5011785;28;7083;-66
2023/01/17 02:03:18;;;;;;;;;;;;;;;25.86;40.28;91678.63;5012105;28;7506;-67
2023/01/17 02:05:52;;;;;;;;;;;;;;;25.83;40.64;91677.75;5012177;28;9043;-67
2023/01/17 02:08:36;;;;;;;;;;;;;;;25.82;40.32;91668.03;5010324;28;9222;-67
2023/01/17 02:11:05;;;;;;;;;;;;;;;25.83;40.44;91683.25;5011274;28;9869;-67
2023/01/17 02:13:40;;;;;;;;;;;;;;;25.83;40.04;91675.00;5011437;28;9035;-67
2023/01/17 02:16:46;;;;;;;;;;;;;;;25.83;40.39;91669.50;5005363;28;9090;-67
2023/01/17 02:19:34;;;;;;;;;;;;;;;25.85;40.45;91671.66;5027123;28;7222;-67
2023/01/17 02:22:38;;;;;;;;;;;;;;;25.84;40.13;91659.91;5021353;28;9447;-67
2023/01/17 02:25:43;;;;;;;;;;;;;;;25.85;40.79;91666.88;5006129;28;9328;-67
2023/01/17 02:28:16;;;;;;;;;;;;;;;25.88;40.55;91676.72;5006110;28;7503;-66
2023/01/17 02:30:49;;;;;;;;;;;;;;;25.82;41.04;91670.03;5020372;28;7269;-67
2023/01/17 02:33:21;;;;;;;;;;;;;;;25.75;40.26;91660.63;5010860;28;7038;-66
2023/01/17 02:36:09;;;;;;;;;;;;;;;25.81;40.53;91666.59;5010144;28;7078;-66
2023/01/17 02:38:59;;;;;;;;;;;;;;;25.85;40.79;91669.63;5022076;28;7254;-66
2023/01/17 02:41:35;;;;;;;;;;;;;;;25.86;40.26;91657.31;5006131;28;9237;-66
2023/01/17 02:44:02;;;;;;;;;;;;;;;25.85;39.91;91655.88;5007713;28;7950;-66
2023/01/17 02:46:28;;;;;;;;;;;;;;;25.88;40.92;91654.69;5019670;28;9107;-66
2023/01/17 02:48:56;;;;;;;;;;;;;;;25.86;40.69;91662.81;5002892;28;10093;-66
2023/01/17 02:51:37;;;;;;;;;;;;;;;25.85;40.43;91652.38;5004942;28;9206;-66
2023/01/17 02:54:23;;;;;;;;;;;;;;;25.86;40.24;91657.31;5007615;28;7090;-66
2023/01/17 02:57:12;;;;;;;;;;;;;;;25.86;40.16;91657.31;5020216;28;8028;-66
2023/01/17 03:00:12;;;;;;;;;;;;;;;25.86;40.14;91651.81;4999714;28;9233;-66
2023/01/17 03:02:57;;;;;;;;;;;;;;;25.85;39.82;91642.09;4962704;28;8770;-66
2023/01/17 03:05:45;;;;;;;;;;;;;;;25.85;40.00;91639.34;4964306;28;9212;-66
2023/01/17 03:08:23;;;;;;;;;;;;;;;25.86;40.06;91629.78;4968360;28;9002;-67
2023/01/17 03:10:50;;;;;;;;;;;;;;;25.81;40.18;91628.03;4951533;28;9071;-66
2023/01/17 03:13:17;;;;;;;;;;;;;;;25.84;39.97;91626.13;4971966;28;7117;-67
2023/01/17 03:15:53;;;;;;;;;;;;;;;25.84;39.90;91623.38;4969291;28;9342;-67
2023/01/17 03:18:54;;;;;;;;;;;;;;;25.83;39.70;91625.44;4953774;28;8221;-66
2023/01/17 03:21:22;;;;;;;;;;;;;;;25.84;40.76;91631.66;4953935;28;7272;-66
2023/01/17 03:23:48;;;;;;;;;;;;;;;25.83;39.89;91619.94;4970941;28;9059;-66
2023/01/17 03:26:14;;;;;;;;;;;;;;;25.83;40.55;91624.72;4968441;28;9186;-67
2023/01/17 03:29:15;;;;;;;;;;;;;;;25.83;40.45;91624.72;4970420;28;7085;-66
2023/01/17 03:31:44;;;;;;;;;;;;;;;25.83;40.32;91627.47;4899499;29;7306;-66
2023/01/17 03:34:13;;;;;;;;;;;;;;;25.85;39.91;91620.06;4914028;29;7390;-66
2023/01/17 03:36:49;;;;;;;;;;;;;;;25.82;40.13;91612.97;4916029;29;8740;-66
2023/01/17 03:39:17;;;;;;;;;;;;;;;25.83;40.37;91619.94;4909755;29;7204;-67
2023/01/17 03:41:42;;;;;;;;;;;;;;;25.82;40.24;91618.47;4932296;29;9031;-67
2023/01/17 03:44:11;;;;;;;;;;;;;;;25.83;40.53;91610.94;4936349;28;9149;-67
2023/01/17 03:46:40;;;;;;;;;;;;;;;25.82;40.33;91607.44;4913209;29;7511;-67
2023/01/17 03:49:15;;;;;;;;;;;;;;;25.83;39.76;91599.91;4918890;29;9036;-67
2023/01/17 03:51:41;;;;;;;;;;;;;;;25.83;40.01;91591.66;4934230;29;9197;-67
2023/01/17 03:54:07;;;;;;;;;;;;;;;25.82;39.83;91590.94;4935323;28;7302;-66
2023/01/17 03:56:34;;;;;;;;;;;;;;;25.82;39.52;91579.91;4934284;29;9434;-67
2023/01/17 03:59:00;;;;;;;;;;;;;;;25.83;39.94;91589.63;4919545;29;7526;-67
2023/01/17 04:01:29;;;;;;;;;;;;;;;25.83;40.20;91586.88;4917679;29;9118;-67
2023/01/17 04:03:55;;;;;;;;;;;;;;;25.83;40.33;91589.63;4918005;29;7092;-66
2023/01/17 04:06:21;;;;;;;;;;;;;;;25.82;39.76;91590.19;4989007;28;7002;-66
2023/01/17 04:08:49;;;;;;;;;;;;;;;25.81;40.51;91583.25;5011815;28;7902;-67
2023/01/17 04:11:16;;;;;;;;;;;;;;;25.81;40.65;91572.25;5012805;28;7204;-66
2023/01/17 04:13:43;;;;;;;;;;;;;;;25.81;40.01;91572.97;5008571;28;7485;-67
2023/01/17 04:16:14;;;;;;;;;;;;;;;25.80;40.36;91559.78;5008418;28;7156;-66
2023/01/17 04:18:42;;;;;;;;;;;;;;;25.79;40.00;91558.34;5010785;28;7244;-66
2023/01/17 04:21:16;;;;;;;;;;;;;;;25.81;39.66;91556.47;5006635;28;8374;-66
2023/01/17 04:23:50;;;;;;;;;;;;;;;25.80;39.53;91554.25;5012939;28;9114;-66
2023/01/17 04:26:26;;;;;;;;;;;;;;;25.80;39.94;91549.50;5014280;28;7353;-67
2023/01/17 04:29:04;;;;;;;;;;;;;;;25.78;40.09;91545.88;5008506;28;8997;-67
2023/01/17 04:32:28;;;;;;;;;;;;;;;25.79;39.48;91537.03;5014636;28;7226;-67
2023/01/17 04:35:15;;;;;;;;;;;;;;;25.77;39.85;91528.63;5010858;28;8095;-66
2023/01/17 04:37:41;;;;;;;;;;;;;;;25.78;40.57;91523.84;5028435;28;7347;-66
2023/01/17 04:40:28;;;;;;;;;;;;;;;25.78;40.34;91518.34;5003118;28;7048;-66
2023/01/17 04:43:06;;;;;;;;;;;;;;;25.78;40.40;91521.81;5027782;28;9396;-66
2023/01/17 04:45:39;;;;;;;;;;;;;;;25.76;39.46;91509.94;5005691;28;7132;-66
2023/01/17 04:48:27;;;;;;;;;;;;;;;25.79;39.86;91506.03;5011349;28;8686;-66
2023/01/17 04:51:11;;;;;;;;;;;;;;;25.77;40.02;91495.59;5013324;28;9987;-66
2023/01/17 04:53:37;;;;;;;;;;;;;;;25.76;40.08;91498.91;5011957;28;7154;-66
2023/01/17 04:56:03;;;;;;;;;;;;;;;25.72;39.89;91493.88;5025618;28;9025;-66
2023/01/17 04:58:50;;;;;;;;;;;;;;;25.76;40.35;91488.63;5027131;28;7035;-66
2023/01/17 05:01:16;;;;;;;;;;;;;;;25.77;39.72;91498.34;5006192;28;9313;-66
2023/01/17 05:03:45;;;;;;;;;;;;;;;25.75;39.39;91498.19;4993665;28;8874;-66
2023/01/17 05:06:43;;;;;;;;;;;;;;;25.76;40.45;91499.66;5014181;28;9073;-67
2023/01/17 05:09:10;;;;;;;;;;;;;;;25.76;40.22;91493.41;4971011;28;9313;-67
2023/01/17 05:11:36;;;;;;;;;;;;;;;25.76;39.70;91494.16;4955487;28;9055;-66
2023/01/17 05:14:03;;;;;;;;;;;;;;;25.76;39.53;91493.41;4953433;28;7019;-67
2023/01/17 05:16:38;;;;;;;;;;;;;;;25.75;39.42;91487.19;4954340;28;7205;-67
2023/01/17 05:19:08;;;;;;;;;;;;;;;25.76;39.46;91483.13;4967944;28;8153;-66
2023/01/17 05:21:37;;;;;;;;;;;;;;;25.76;40.12;91480.38;4953046;28;7322;-66
2023/01/17 05:24:04;;;;;;;;;;;;;;;25.76;39.41;91474.88;4957792;28;7117;-66
2023/01/17 05:26:42;;;;;;;;;;;;;;;25.75;39.64;91465.16;4974844;28;7856;-65
2023/01/17 05:29:54;;;;;;;;;;;;;;;25.76;39.38;91466.63;4970893;28;9237;-65
2023/01/17 05:32:22;;;;;;;;;;;;;;;25.76;39.92;91474.88;4970082;28;7015;-65
2023/01/17 05:35:19;;;;;;;;;;;;;;;25.73;39.64;91473.28;4956365;28;8722;-65
2023/01/17 05:38:05;;;;;;;;;;;;;;;25.82;41.03;91474.56;4905573;29;7236;-64
2023/01/17 05:41:17;;;;;;;;;;;;;;;25.81;40.42;91484.88;4901875;29;9075;-64
2023/01/17 05:43:53;;;;;;;;;;;;;;;25.79;40.26;91484.72;4875875;29;7208;-64
2023/01/17 05:46:20;;;;;;;;;;;;;;;25.77;40.08;91486.63;4891998;29;7252;-64
2023/01/17 05:48:48;;;;;;;;;;;;;;;25.77;39.79;91481.84;4875377;29;7014;-65
2023/01/17 05:51:17;;;;;;;;;;;;;;;25.78;39.97;91477.03;4878307;29;9131;-66
2023/01/17 05:53:43;;;;;;;;;;;;;;;25.76;39.97;91483.13;4879029;29;9118;-66
2023/01/17 05:56:09;;;;;;;;;;;;;;;25.75;40.11;91476.16;4876826;29;9155;-66
2023/01/17 05:58:38;;;;;;;;;;;;;;;25.80;40.07;91469.66;4875456;29;8909;-65
2023/01/17 06:01:05;;;;;;;;;;;;;;;25.87;39.84;91470.78;4874664;29;9073;-66
2023/01/17 06:03:33;;;;;;;;;;;;;;;25.89;40.16;91476.44;4886407;29;7275;-67
2023/01/17 06:06:10;;;;;;;;;;;;;;;25.92;39.50;91462.25;4883830;29;7270;-67
2023/01/17 06:08:46;;;;;;;;;;;;;;;25.95;40.28;91458.31;4875305;29;9209;-67
2023/01/17 06:11:12;;;;;;;;;;;;;;;25.97;39.92;91446.72;4888473;29;7082;-67
2023/01/17 06:14:10;;;;;;;;;;;;;;;25.99;40.68;91458.59;4887853;29;9010;-67
2023/01/17 06:16:47;;;;;;;;;;;;;;;25.99;39.47;91461.34;4914925;29;8588;-65
2023/01/17 06:19:30;;;;;;;;;;;;;;;25.99;39.60;91455.84;4933423;29;7422;-66
2023/01/17 06:21:58;;;;;;;;;;;;;;;25.94;41.89;91443.13;5011636;28;8977;-67
2023/01/17 06:24:43;;;;;;;;;;;;;;;25.97;40.40;91439.19;5027517;28;7270;-66
2023/01/17 06:27:17;;;;;;;;;;;;;;;26.00;40.38;91431.78;5010237;28;7530;-65
2023/01/17 06:29:49;;;;;;;;;;;;;;;25.97;40.53;91427.44;5012538;28;9050;-65
2023/01/17 06:32:28;;;;;;;;;;;;;;;25.98;40.51;91421.34;5013182;28;7649;-66
2023/01/17 06:34:59;;;;;;;;;;;;;;;25.98;43.72;91420.63;5005757;28;9338;-69
2023/01/17 06:37:26;;;;;;;;;;;;;;;26.02;41.59;91407.88;5005673;28;7284;-65
2023/01/17 06:39:58;;;;;;;;;;;;;;;26.00;41.44;91402.22;5009610;28;7025;-66
2023/01/17 06:42:29;;;;;;;;;;;;;;;25.98;40.51;91399.31;5000986;28;9416;-66
2023/01/17 06:44:58;;;;;;;;;;;;;;;25.92;41.60;91401.66;5010980;28;8965;-67
2023/01/17 06:47:32;;;;;;;;;;;;;;;25.97;40.73;91402.66;5008730;28;7041;-66
2023/01/17 06:50:02;;;;;;;;;;;;;;;25.96;40.67;91396.44;5008128;28;9091;-67
2023/01/17 06:52:30;;;;;;;;;;;;;;;25.97;40.84;91406.13;5012270;28;7344;-66
2023/01/17 06:54:56;;;;;;;;;;;;;;;26.03;40.49;91412.03;5011250;28;7273;-67
2023/01/17 06:57:22;;;;;;;;;;;;;;;26.05;40.47;91403.94;5012716;28;9478;-67
2023/01/17 07:03:42;;;;;;;;;;;;;;;26.04;40.49;91393.50;4983206;28;7973;-67
2023/01/17 07:06:20;;;;;;;;;;;;;;;26.01;40.45;91389.19;4966329;28;7128;-67
2023/01/17 07:08:57;;;;;;;;;;;;;;;25.85;31.63;91382.56;4959972;28;7489;-68
2023/01/17 07:11:27;;;;;;;;;;;;;;;25.56;32.13;91370.88;4965956;28;8710;-68
2023/01/17 07:13:53;;;;;;;;;;;;;;;25.39;31.17;91382.75;4984512;28;7213;-67
2023/01/17 07:16:30;;;;;;;;;;;;;;;25.28;29.74;91372.34;4972485;28;7067;-66
2023/01/17 07:19:06;;;;;;;;;;;;;;;25.25;29.61;91371.47;4990728;28;8742;-66
2023/01/17 07:21:32;;;;;;;;;;;;;;;25.25;27.83;91360.47;4980526;28;7108;-67
2023/01/17 07:23:58;;;;;;;;;;;;;;;25.28;28.54;91366.84;4983103;28;7133;-67
2023/01/17 07:26:24;;;;;;;;;;;;;;;25.32;27.30;91370.59;4962491;28;9297;-67
2023/01/17 07:28:53;;;;;;;;;;;;;;;25.37;27.30;91368.88;4971069;28;7146;-66
2023/01/17 07:31:19;;;;;;;;;;;;;;;25.39;28.12;91369.00;4982159;28;9156;-67
2023/01/17 07:33:48;;;;;;;;;;;;;;;25.45;29.08;91372.19;4969685;28;7017;-66
2023/01/17 07:36:15;;;;;;;;;;;;;;;25.47;28.99;91364.09;4979886;28;7514;-66
2023/01/17 07:38:43;;;;;;;;;;;;;;;25.52;29.04;91365.81;4999684;28;7379;-66
2023/01/17 07:41:16;;;;;;;;;;;;;;;25.54;29.84;91356.97;5007254;28;9090;-66
2023/01/17 07:43:45;;;;;;;;;;;;;;;25.54;30.27;91376.97;5009385;28;8784;-67
2023/01/17 07:46:15;;;;;;;;;;;;;;;25.59;29.82;91377.97;5007271;28;7846;-66
2023/01/17 07:48:41;;;;;;;;;;;;;;;25.61;30.61;91364.34;5005947;28;9168;-66
2023/01/17 07:51:08;;;;;;;;;;;;;;;25.64;31.09;91352.19;5006501;28;7044;-66
2023/01/17 07:53:35;;;;;;;;;;;;;;;25.66;30.78;91338.56;5005051;28;8624;-66
2023/01/17 07:56:08;;;;;;;;;;;;;;;25.66;30.74;91344.78;5006861;28;7623;-66
2023/01/17 07:58:42;;;;;;;;;;;;;;;25.70;31.20;91336.09;5010908;28;10392;-66
2023/01/17 08:01:29;;;;;;;;;;;;;;;25.73;31.27;91323.91;5007609;28;7110;-66
2023/01/17 08:04:01;;;;;;;;;;;;;;;25.75;31.57;91324.75;5010363;28;9295;-66
2023/01/17 08:06:46;;;;;;;;;;;;;;;25.77;32.07;91322.16;5010168;28;7339;-66
2023/01/17 08:09:25;;;;;;;;;;;;;;;25.79;31.87;91313.31;5005676;28;7139;-66
2023/01/17 08:11:57;;;;;;;;;;;;;;;25.79;31.27;91310.56;5004483;28;9011;-66
2023/01/17 08:14:35;;;;;;;;;;;;;;;25.80;31.64;91300.97;5011667;28;7247;-66
2023/01/17 08:17:11;;;;;;;;;;;;;;;25.81;31.61;91275.63;5011388;28;7032;-66
2023/01/17 08:19:40;;;;;;;;;;;;;;;25.82;31.74;91265.31;5003318;28;7252;-66
2023/01/17 08:22:07;;;;;;;;;;;;;;;25.84;32.52;91257.19;5012157;28;7294;-67
2023/01/17 08:24:36;;;;;;;;;;;;;;;25.84;31.93;91246.19;5005604;28;9238;-67
2023/01/17 08:27:02;;;;;;;;;;;;;;;25.85;32.96;91239.38;5012131;28;9316;-67
2023/01/17 08:29:28;;;;;;;;;;;;;;;25.84;32.69;91235.91;5010823;28;9035;-67
2023/01/17 08:32:00;;;;;;;;;;;;;;;25.84;32.19;91241.41;5026102;28;7299;-67
2023/01/17 08:34:31;;;;;;;;;;;;;;;25.89;32.79;91242.41;5010659;28;7053;-67
2023/01/17 08:36:59;;;;;;;;;;;;;;;25.88;32.61;91243.72;5010715;28;8977;-66
2023/01/17 08:39:27;;;;;;;;;;;;;;;25.89;33.22;91248.63;5009582;28;9406;-67
2023/01/17 08:41:56;;;;;;;;;;;;;;;25.91;33.08;91248.75;5010269;28;7462;-66
2023/01/17 08:44:23;;;;;;;;;;;;;;;25.92;33.12;91225.44;5011507;28;8997;-67
2023/01/17 08:46:51;;;;;;;;;;;;;;;25.93;33.00;91218.59;5009892;28;7099;-66
2023/01/17 08:49:37;;;;;;;;;;;;;;;25.91;33.13;91212.97;5012786;28;6927;-66
2023/01/17 08:52:17;;;;;;;;;;;;;;;25.89;33.41;91212.84;5022967;28;9191;-67
2023/01/17 08:54:42;;;;;;;;;;;;;;;25.91;34.13;91223.25;5011241;28;7286;-67
2023/01/17 08:57:09;;;;;;;;;;;;;;;25.88;33.94;91225.16;5008197;28;7258;-66
2023/01/17 08:59:35;;;;;;;;;;;;;;;25.91;33.61;91212.97;5007396;28;7290;-67
2023/01/17 09:02:05;;;;;;;;;;;;;;;25.92;33.62;91216.44;5008254;28;7065;-67
2023/01/17 09:04:32;;;;;;;;;;;;;;;25.91;34.48;91212.25;5013302;28;9046;-66
2023/01/17 09:06:59;;;;;;;;;;;;;;;25.92;34.28;91219.19;5010358;28;9051;-66
2023/01/17 09:09:27;;;;;;;;;;;;;;;25.90;34.80;91219.78;5029595;28;7325;-67
2023/01/17 09:12:06;;;;;;;;;;;;;;;25.90;34.71;91213.56;5011608;28;9401;-67
2023/01/17 09:14:42;;;;;;;;;;;;;;;25.91;34.67;91212.97;5013084;28;7033;-67
2023/01/17 09:17:38;;;;;;;;;;;;;;;25.90;34.62;91213.56;5011282;28;8780;-66
2023/01/17 09:20:13;;;;;;;;;;;;;;;25.90;34.47;91213.56;4936224;28;7135;-67
2023/01/17 09:22:43;;;;;;;;;;;;;;;25.89;34.43;91218.34;4934102;28;7148;-67
2023/01/17 09:25:29;;;;;;;;;;;;;;;25.92;34.66;91219.19;4934978;28;8736;-67
2023/01/17 09:28:04;;;;;;;;;;;;;;;25.91;34.11;91223.25;4928016;28;7044;-66
2023/01/17 09:30:55;;;;;;;;;;;;;;;25.92;34.55;91228.19;4951258;28;9065;-66
2023/01/17 09:33:50;;;;;;;;;;;;;;;25.91;34.94;91223.25;4948492;28;9221;-66
2023/01/17 09:36:17;;;;;;;;;;;;;;;25.98;35.22;91216.84;4896057;29;7209;-66
2023/01/17 09:39:20;;;;;;;;;;;;;;;26.01;33.81;91207.41;4902920;29;8063;-66
2023/01/17 09:42:29;;;;;;;;;;;;;;;25.94;35.13;91220.06;4872501;29;8510;-66
2023/01/17 09:45:18;;;;;;;;;;;;;;;25.94;34.75;91211.81;4855147;29;7313;-66
2023/01/17 09:47:52;;;;;;;;;;;;;;;25.96;34.85;91209.19;4851037;29;7200;-66
2023/01/17 09:50:33;;;;;;;;;;;;;;;25.97;34.90;91205.09;4846382;29;7274;-66
2023/01/17 09:53:04;;;;;;;;;;;;;;;25.97;35.21;91198.88;4855776;29;9307;-66
2023/01/17 09:55:42;;;;;;;;;;;;;;;25.94;34.60;91195.28;4863269;29;8289;-67
2023/01/17 09:58:22;;;;;;;;;;;;;;;25.93;34.56;91204.84;4859261;29;8880;-66
2023/01/17 10:01:34;;;;;;;;;;;;;;;25.93;34.63;91196.56;4856187;29;7230;-66
2023/01/17 10:04:41;;;;;;;;;;;;;;;25.92;35.82;91194.41;4854896;29;7227;-67
2023/01/17 10:07:44;;;;;;;;;;;;;;;25.93;35.95;91193.81;4869043;29;8929;-66
2023/01/17 10:10:21;;;;;;;;;;;;;;;25.91;34.88;91192.97;4854759;29;8225;-66
2023/01/17 10:13:00;;;;;;;;;;;;;;;25.90;35.29;91192.22;4852621;29;7845;-66
2023/01/17 10:15:55;;;;;;;;;;;;;;;25.90;35.15;91195.00;4881224;29;7260;-66
2023/01/17 10:18:32;;;;;;;;;;;;;;;25.90;35.30;91192.22;4891784;29;7265;-67
2023/01/17 10:21:20;;;;;;;;;;;;;;;25.90;35.89;91186.03;4902928;28;9067;-67
2023/01/17 10:23:52;;;;;;;;;;;;;;;25.90;36.06;91192.22;4929304;29;8678;-67
2023/01/17 10:26:24;;;;;;;;;;;;;;;25.92;35.53;91188.91;4922749;29;7034;-67
2023/01/17 10:28:55;;;;;;;;;;;;;;;25.93;35.63;91184.84;4907416;29;8746;-66
2023/01/17 10:32:04;;;;;;;;;;;;;;;25.92;36.19;91175.88;4911423;29;8206;-66
2023/01/17 10:35:18;;;;;;;;;;;;;;;25.93;35.60;91171.78;4914126;29;7888;-65
2023/01/17 10:37:46;;;;;;;;;;;;;;;25.91;35.97;91171.66;4861208;29;9376;-66
2023/01/17 10:40:23;;;;;;;;;;;;;;;25.95;36.48;91166.41;4874811;29;9290;-66
2023/01/17 10:43:33;;;;;;;;;;;;;;;25.93;35.85;91152.53;4860500;29;7117;-66
2023/01/17 10:46:27;;;;;;;;;;;;;;;25.92;36.61;91145.59;4878804;29;9241;-66
2023/01/17 10:49:03;;;;;;;;;;;;;;;25.94;36.43;91142.22;4876444;29;8757;-66
2023/01/17 10:52:18;;;;;;;;;;;;;;;25.94;36.34;91145.00;4892123;29;7843;-66
2023/01/17 10:55:05;;;;;;;;;;;;;;;25.98;36.02;91137.72;4868230;29;7038;-65
2023/01/17 10:57:41;;;;;;;;;;;;;;;25.97;35.66;91138.28;4873917;29;7226;-66
2023/01/17 11:01:06;;;;;;;;;;;;;;;25.97;35.69;91130.75;4867059;29;9089;-66
2023/01/17 11:03:57;;;;;;;;;;;;;;;25.96;36.59;91112.06;4909823;29;7052;-66
2023/01/17 11:06:31;;;;;;;;;;;;;;;25.95;36.53;91103.09;4896081;29;8933;-67
2023/01/17 11:09:10;;;;;;;;;;;;;;;25.94;35.60;91098.91;4898697;29;7279;-67
2023/01/17 11:12:17;;;;;;;;;;;;;;;25.94;35.88;91096.16;4912454;29;9185;-66
2023/01/17 11:15:09;;;;;;;;;;;;;;;25.94;36.71;91096.16;4994029;28;7667;-67
2023/01/17 11:17:45;;;;;;;;;;;;;;;25.96;35.88;91101.78;5003776;28;7063;-67
2023/01/17 11:20:34;;;;;;;;;;;;;;;25.93;36.01;91100.19;5010343;28;9308;-66
2023/01/17 11:23:28;;;;;;;;;;;;;;;25.95;36.73;91088.59;5016384;28;7320;-67
2023/01/17 11:26:21;;;;;;;;;;;;;;;25.95;36.81;91083.81;5024127;28;9203;-66
2023/01/17 11:29:14;;;;;;;;;;;;;;;25.99;35.91;91073.03;5009612;28;8987;-66
2023/01/17 11:31:55;;;;;;;;;;;;;;;25.99;36.86;91062.03;5027573;28;8294;-66
2023/01/17 11:34:32;;;;;;;;;;;;;;;25.96;36.83;91052.22;5002475;28;8249;-66
2023/01/17 11:37:14;;;;;;;;;;;;;;;25.97;36.46;91048.13;5025476;28;7651;-66
2023/01/17 11:39:41;;;;;;;;;;;;;;;25.98;36.60;91048.88;5020028;28;9066;-65
2023/01/17 11:42:33;;;;;;;;;;;;;;;25.98;36.78;91052.34;5009180;28;7381;-66
2023/01/17 11:45:32;;;;;;;;;;;;;;;25.98;36.39;91049.59;5020446;28;6991;-67
2023/01/17 11:48:09;;;;;;;;;;;;;;;25.99;36.31;91051.00;4940281;28;7045;-66
2023/01/17 11:50:54;;;;;;;;;;;;;;;25.98;36.63;91037.84;4941730;28;9528;-66
2023/01/17 11:53:31;;;;;;;;;;;;;;;25.98;36.42;91024.81;4942986;28;9077;-66
2023/01/17 11:56:05;;;;;;;;;;;;;;;26.00;36.59;91010.44;4944215;28;7080;-66
2023/01/17 11:58:38;;;;;;;;;;;;;;;26.01;37.06;90995.38;4952524;28;7042;-66
2023/01/17 12:01:25;;;;;;;;;;;;;;;25.86;33.87;90991.00;4934014;28;7231;-67
2023/01/17 12:04:26;;;;;;;;;;;;;;;25.71;32.78;90990.72;4945981;28;9064;-67
2023/01/17 12:07:29;;;;;;;;;;;;;;;25.57;30.08;90992.56;4955006;28;7484;-66
2023/01/17 12:10:09;;;;;;;;;;;;;;;25.51;29.11;90990.16;4952238;28;9140;-67
2023/01/17 12:15:38;;;;;;;;;;;;;;;25.52;29.20;90977.09;4952365;28;8476;-69
2023/01/17 12:18:15;;;;;;;;;;;;;;;25.56;28.96;90975.31;4954971;28;7036;-67
2023/01/17 12:20:51;;;;;;;;;;;;;;;25.61;29.01;90977.03;4937709;28;9207;-67
2023/01/17 12:23:24;;;;;;;;;;;;;;;25.61;28.56;90971.53;4953094;28;8583;-67
2023/01/17 12:26:18;;;;;;;;;;;;;;;25.64;29.42;90986.13;5013174;28;9057;-67
2023/01/17 12:28:57;;;;;;;;;;;;;;;25.66;29.42;90978.00;5003559;28;7046;-67
2023/01/17 12:31:54;;;;;;;;;;;;;;;25.70;30.68;90970.00;5011066;28;8184;-67
2023/01/17 12:34:25;;;;;;;;;;;;;;;25.73;29.85;90966.06;5008717;28;9261;-68
2023/01/17 12:37:21;;;;;;;;;;;;;;;25.73;30.18;90955.06;5021697;28;8969;-67
2023/01/17 12:39:58;;;;;;;;;;;;;;;25.74;30.50;90939.97;5003785;28;7675;-67
2023/01/17 12:42:42;;;;;;;;;;;;;;;25.74;30.72;90954.47;5018266;28;8943;-67
2023/01/17 12:45:20;;;;;;;;;;;;;;;25.75;30.31;90952.44;5024604;28;8724;-68
2023/01/17 12:48:21;;;;;;;;;;;;;;;25.76;30.56;90953.84;5012253;28;7212;-67
2023/01/17 12:51:13;;;;;;;;;;;;;;;25.78;30.75;90945.72;4934294;28;7975;-68
2023/01/17 12:53:55;;;;;;;;;;;;;;;25.78;31.31;90935.44;4932517;29;7054;-67
2023/01/17 12:57:07;;;;;;;;;;;;;;;25.75;30.67;90922.84;4930155;29;7045;-67
2023/01/17 12:59:47;;;;;;;;;;;;;;;25.79;31.18;90920.38;4874172;29;9018;-66
2023/01/17 13:02:46;;;;;;;;;;;;;;;25.81;30.96;90934.25;4861946;29;7217;-67
2023/01/17 13:05:40;;;;;;;;;;;;;;;25.80;31.86;90948.59;4872637;29;7178;-68
2023/01/17 13:08:20;;;;;;;;;;;;;;;25.80;32.42;90949.31;4872009;29;7367;-68
2023/01/17 13:10:54;;;;;;;;;;;;;;;25.81;32.34;90939.75;4857961;29;7259;-67
2023/01/17 13:13:27;;;;;;;;;;;;;;;25.81;32.12;90950.06;4868450;29;9461;-67
2023/01/17 13:16:20;;;;;;;;;;;;;;;25.81;32.43;90950.06;4876293;29;7030;-67
2023/01/17 13:19:13;;;;;;;;;;;;;;;25.79;32.79;90953.41;4876777;29;9013;-67
2023/01/17 13:21:40;;;;;;;;;;;;;;;25.83;33.05;90970.16;4877546;29;8752;-67
2023/01/17 13:24:41;;;;;;;;;;;;;;;25.82;32.50;90954.22;4860616;29;7146;-67
2023/01/17 13:27:32;;;;;;;;;;;;;;;25.83;32.97;90953.66;4907276;28;7018;-66
2023/01/17 13:30:27;;;;;;;;;;;;;;;25.85;32.53;90951.03;4913480;29;9042;-66
2023/01/17 13:33:27;;;;;;;;;;;;;;;25.84;32.79;90937.84;4934913;28;9357;-67
2023/01/17 13:36:05;;;;;;;;;;;;;;;25.82;32.82;90935.69;4961284;28;7303;-67
2023/01/17 13:39:00;;;;;;;;;;;;;;;25.84;33.57;90926.81;5011753;28;9033;-66
2023/01/17 13:41:41;;;;;;;;;;;;;;;25.85;32.93;90928.28;5003303;28;7088;-67
2023/01/17 13:44:30;;;;;;;;;;;;;;;25.86;33.21;90949.00;5009783;28;7297;-67
2023/01/17 13:46:56;;;;;;;;;;;;;;;25.86;33.03;90957.94;5027605;28;7044;-66
2023/01/17 13:49:30;;;;;;;;;;;;;;;25.88;33.65;90958.06;5013447;28;7498;-67
2023/01/17 13:52:25;;;;;;;;;;;;;;;25.88;32.91;90955.31;5023895;28;9461;-67
2023/01/17 13:55:39;;;;;;;;;;;;;;;25.86;33.99;90960.72;5010209;28;6986;-67
2023/01/17 13:58:28;;;;;;;;;;;;;;;25.86;33.75;90966.22;4944555;28;7270;-66
2023/01/17 14:00:55;;;;;;;;;;;;;;;25.87;33.66;90967.66;4930986;29;7038;-66
2023/01/17 14:03:50;;;;;;;;;;;;;;;25.85;33.83;90997.81;4927444;28;8127;-67
2023/01/17 14:06:51;;;;;;;;;;;;;;;25.87;33.88;90986.22;4898124;29;7459;-67
2023/01/17 14:09:50;;;;;;;;;;;;;;;25.86;33.63;90982.03;4895994;29;9080;-67
2023/01/17 14:12:25;;;;;;;;;;;;;;;25.86;34.59;90985.50;4878863;29;8744;-67
2023/01/17 14:18:40;;;;;;;;;;;;;;;25.86;34.65;90974.47;4888409;29;9328;-67
2023/01/17 14:21:21;;;;;;;;;;;;;;;25.86;34.89;90984.78;4882981;29;7644;-67
2023/01/17 14:23:47;;;;;;;;;;;;;;;25.87;34.59;91006.22;4886511;29;7117;-67
2023/01/17 14:26:40;;;;;;;;;;;;;;;25.88;34.99;91004.88;4879911;29;7904;-67
2023/01/17 14:29:57;;;;;;;;;;;;;;;25.88;34.20;90999.38;4873212;29;8812;-67
2023/01/17 14:32:38;;;;;;;;;;;;;;;25.91;35.09;91028.50;4884570;29;9034;-67
2023/01/17 14:35:46;;;;;;;;;;;;;;;25.90;35.05;91031.84;4914024;29;8859;-67
2023/01/17 14:38:27;;;;;;;;;;;;;;;25.90;34.96;91029.78;4907876;29;7553;-67
2023/01/17 14:41:03;;;;;;;;;;;;;;;25.89;34.26;91033.13;4912699;29;7354;-68
2023/01/17 14:43:42;;;;;;;;;;;;;;;25.88;35.17;91024.16;4948551;28;7212;-67
2023/01/17 14:46:18;;;;;;;;;;;;;;;25.89;34.32;91031.13;4968896;28;7031;-67
2023/01/17 14:48:49;;;;;;;;;;;;;;;25.88;34.79;91015.91;5005746;28;9415;-67
2023/01/17 14:51:23;;;;;;;;;;;;;;;25.89;34.63;91022.13;5006071;28;9063;-68
2023/01/17 14:53:59;;;;;;;;;;;;;;;25.89;35.19;91009.09;5008894;28;7361;-67
2023/01/17 14:56:27;;;;;;;;;;;;;;;25.89;34.58;91009.09;5002132;28;7130;-68
2023/01/17 14:59:28;;;;;;;;;;;;;;;25.93;35.11;91014.13;5019764;28;9127;-67
2023/01/17 15:01:59;;;;;;;;;;;;;;;25.89;35.45;91005.59;4970242;28;8984;-68
2023/01/17 15:04:36;;;;;;;;;;;;;;;25.89;35.32;90998.06;4965253;28;7331;-67
2023/01/17 15:07:03;;;;;;;;;;;;;;;25.89;35.49;90992.56;4963637;28;9365;-68
2023/01/17 15:09:37;;;;;;;;;;;;;;;25.90;34.44;90988.50;4984784;28;9024;-68
2023/01/17 15:12:15;;;;;;;;;;;;;;;25.88;35.43;90991.13;4959052;28;8718;-68
2023/01/17 15:14:45;;;;;;;;;;;;;;;25.88;34.74;90987.66;4962797;28;9004;-68
2023/01/17 15:17:23;;;;;;;;;;;;;;;25.89;35.51;90989.09;4967236;28;7302;-67
2023/01/17 15:20:12;;;;;;;;;;;;;;;25.89;35.61;90987.06;4989135;28;7297;-67
2023/01/17 15:22:41;;;;;;;;;;;;;;;25.89;34.90;90989.81;4965313;28;7225;-68
2023/01/17 15:25:11;;;;;;;;;;;;;;;25.89;35.77;90987.06;4985618;28;7739;-68
2023/01/17 15:27:50;;;;;;;;;;;;;;;25.89;35.39;90997.34;4985000;28;7454;-67